sensor_id;sensor_type;location;lat;lon;timestamp;pressure;altitude;pressure_sealevel;temperature;humidity
10261;BME280;5175;42.606;23.388;2023-11-25T00:01:23;91581.91;;;12.95;100.00
10261;BME280;5175;42.606;23.388;2023-11-25T00:03:50;91572.09;;;12.84;100.00
10261;BME280;5175;42.606;23.388;2023-11-25T00:06:16;91564.41;;;12.82;100.00
10261;BME280;5175;42.606;23.388;2023-11-25T00:08:45;91564.75;;;12.81;100.00
10261;BME280;5175;42.606;23.388;2023-11-25T00:11:12;91556.72;;;12.81;100.00
10261;BME280;5175;42.606;23.388;2023-11-25T00:13:39;91565.00;;;12.76;100.00
10261;BME280;5175;42.606;23.388;2023-11-25T00:16:08;91576.81;;;12.75;100.00
10261;BME280;5175;42.606;23.388;2023-11-25T00:18:35;91565.75;;;12.76;100.00
10261;BME280;5175;42.606;23.388;2023-11-25T00:21:02;91548.44;;;12.70;100.00
10261;BME280;5175;42.606;23.388;2023-11-25T00:23:29;91553.69;;;12.82;100.00
10261;BME280;5175;42.606;23.388;2023-11-25T00:25:56;91555.94;;;12.80;100.00
10261;BME280;5175;42.606;23.388;2023-11-25T00:28:22;91542.94;;;12.79;100.00
10261;BME280;5175;42.606;23.388;2023-11-25T00:30:49;91533.50;;;12.85;100.00
10261;BME280;5175;42.606;23.388;2023-11-25T00:33:17;91529.63;;;12.82;100.00
10261;BME280;5175;42.606;23.388;2023-11-25T00:35:44;91514.00;;;12.69;100.00
10261;BME280;5175;42.606;23.388;2023-11-25T00:38:10;91507.16;;;12.71;100.00
10261;BME280;5175;42.606;23.388;2023-11-25T00:40:38;91493.22;;;12.62;100.00
10261;BME280;5175;42.606;23.388;2023-11-25T00:43:04;91491.47;;;12.70;100.00
10261;BME280;5175;42.606;23.388;2023-11-25T00:45:32;91500.53;;;12.96;100.00
10261;BME280;5175;42.606;23.388;2023-11-25T00:47:58;91490.00;;;12.88;100.00
10261;BME280;5175;42.606;23.388;2023-11-25T00:50:27;91502.69;;;12.91;100.00
10261;BME280;5175;42.606;23.388;2023-11-25T00:52:53;91465.88;;;13.03;100.00
10261;BME280;5175;42.606;23.388;2023-11-25T00:55:20;91481.44;;;12.82;100.00
10261;BME280;5175;42.606;23.388;2023-11-25T00:57:47;91482.34;;;12.71;100.00
10261;BME280;5175;42.606;23.388;2023-11-25T01:00:15;91473.28;;;12.75;100.00
10261;BME280;5175;42.606;23.388;2023-11-25T01:02:42;91458.25;;;12.71;100.00
10261;BME280;5175;42.606;23.388;2023-11-25T01:05:09;91460.50;;;12.69;100.00
10261;BME280;5175;42.606;23.388;2023-11-25T01:07:37;91451.38;;;12.54;100.00
10261;BME280;5175;42.606;23.388;2023-11-25T01:10:05;91452.06;;;12.51;100.00
10261;BME280;5175;42.606;23.388;2023-11-25T01:12:31;91460.69;;;12.60;100.00
10261;BME280;5175;42.606;23.388;2023-11-25T01:15:01;91456.47;;;12.28;100.00
10261;BME280;5175;42.606;23.388;2023-11-25T01:17:28;91455.34;;;12.44;100.00
10261;BME280;5175;42.606;23.388;2023-11-25T01:19:56;91442.91;;;12.52;100.00
10261;BME280;5175;42.606;23.388;2023-11-25T01:22:23;91435.16;;;12.47;100.00
10261;BME280;5175;42.606;23.388;2023-11-25T01:24:52;91423.09;;;12.37;100.00
10261;BME280;5175;42.606;23.388;2023-11-25T01:27:19;91408.81;;;12.14;100.00
10261;BME280;5175;42.606;23.388;2023-11-25T01:29:46;91395.59;;;12.06;100.00
10261;BME280;5175;42.606;23.388;2023-11-25T01:32:13;91389.56;;;11.93;100.00
10261;BME280;5175;42.606;23.388;2023-11-25T01:34:39;91383.09;;;11.94;100.00
10261;BME280;5175;42.606;23.388;2023-11-25T01:37:06;91388.09;;;11.80;100.00
10261;BME280;5175;42.606;23.388;2023-11-25T01:39:34;91403.09;;;11.84;100.00
10261;BME280;5175;42.606;23.388;2023-11-25T01:42:02;91402.56;;;11.79;100.00
10261;BME280;5175;42.606;23.388;2023-11-25T01:44:28;91389.56;;;11.77;100.00
10261;BME280;5175;42.606;23.388;2023-11-25T01:46:55;91384.75;;;11.83;100.00
10261;BME280;5175;42.606;23.388;2023-11-25T01:49:22;91396.88;;;11.80;100.00
10261;BME280;5175;42.606;23.388;2023-11-25T01:51:50;91389.50;;;11.62;100.00
10261;BME280;5175;42.606;23.388;2023-11-25T01:54:19;91397.38;;;11.27;100.00
10261;BME280;5175;42.606;23.388;2023-11-25T01:56:48;91382.47;;;11.26;100.00
10261;BME280;5175;42.606;23.388;2023-11-25T01:59:18;91383.13;;;10.95;100.00
10261;BME280;5175;42.606;23.388;2023-11-25T02:01:46;91390.78;;;10.97;100.00
10261;BME280;5175;42.606;23.388;2023-11-25T02:04:14;91382.47;;;10.86;100.00
10261;BME280;5175;42.606;23.388;2023-11-25T02:06:40;91391.38;;;10.90;100.00
10261;BME280;5175;42.606;23.388;2023-11-25T02:09:07;91382.59;;;10.50;100.00
10261;BME280;5175;42.606;23.388;2023-11-25T02:11:55;91394.94;;;10.42;100.00
10261;BME280;5175;42.606;23.388;2023-11-25T02:14:24;91388.69;;;10.02;100.00
10261;BME280;5175;42.606;23.388;2023-11-25T02:16:51;91397.69;;;9.97;100.00
10261;BME280;5175;42.606;23.388;2023-11-25T02:19:19;91407.31;;;9.78;100.00
10261;BME280;5175;42.606;23.388;2023-11-25T02:21:46;91384.91;;;9.67;100.00
10261;BME280;5175;42.606;23.388;2023-11-25T02:24:14;91343.28;;;9.50;100.00
10261;BME280;5175;42.606;23.388;2023-11-25T02:26:42;91380.34;;;9.55;100.00
10261;BME280;5175;42.606;23.388;2023-11-25T02:29:09;91388.56;;;9.62;100.00
10261;BME280;5175;42.606;23.388;2023-11-25T02:31:36;91358.94;;;9.64;100.00
10261;BME280;5175;42.606;23.388;2023-11-25T02:34:04;91373.91;;;9.68;100.00
10261;BME280;5175;42.606;23.388;2023-11-25T02:36:33;91366.31;;;9.34;100.00
10261;BME280;5175;42.606;23.388;2023-11-25T02:38:59;91373.44;;;9.54;100.00
10261;BME280;5175;42.606;23.388;2023-11-25T02:41:28;91373.97;;;9.48;100.00
10261;BME280;5175;42.606;23.388;2023-11-25T02:43:55;91377.69;;;9.55;100.00
10261;BME280;5175;42.606;23.388;2023-11-25T02:46:22;91376.63;;;9.48;100.00
10261;BME280;5175;42.606;23.388;2023-11-25T02:48:49;91380.28;;;9.43;100.00
10261;BME280;5175;42.606;23.388;2023-11-25T02:51:16;91372.97;;;9.40;100.00
10261;BME280;5175;42.606;23.388;2023-11-25T02:53:43;91373.66;;;9.37;100.00
10261;BME280;5175;42.606;23.388;2023-11-25T02:56:10;91391.16;;;9.05;100.00
10261;BME280;5175;42.606;23.388;2023-11-25T02:58:38;91375.19;;;8.72;100.00
10261;BME280;5175;42.606;23.388;2023-11-25T03:01:06;91364.47;;;8.60;100.00
10261;BME280;5175;42.606;23.388;2023-11-25T03:03:37;91364.75;;;8.47;100.00
10261;BME280;5175;42.606;23.388;2023-11-25T03:06:08;91361.31;;;8.46;100.00
10261;BME280;5175;42.606;23.388;2023-11-25T03:08:35;91359.94;;;8.61;100.00
10261;BME280;5175;42.606;23.388;2023-11-25T03:11:01;91371.16;;;8.66;100.00
10261;BME280;5175;42.606;23.388;2023-11-25T03:13:39;91359.31;;;8.64;100.00
10261;BME280;5175;42.606;23.388;2023-11-25T03:16:06;91363.72;;;8.60;100.00
10261;BME280;5175;42.606;23.388;2023-11-25T03:18:33;91360.94;;;8.56;100.00
10261;BME280;5175;42.606;23.388;2023-11-25T03:20:59;91359.38;;;8.55;100.00
10261;BME280;5175;42.606;23.388;2023-11-25T03:23:26;91358.22;;;8.44;100.00
10261;BME280;5175;42.606;23.388;2023-11-25T03:25:53;91350.66;;;8.26;100.00
10261;BME280;5175;42.606;23.388;2023-11-25T03:28:20;91359.69;;;8.04;100.00
10261;BME280;5175;42.606;23.388;2023-11-25T03:30:49;91364.81;;;8.09;100.00
10261;BME280;5175;42.606;23.388;2023-11-25T03:33:16;91359.41;;;8.26;100.00
10261;BME280;5175;42.606;23.388;2023-11-25T03:35:42;91366.81;;;8.12;100.00
10261;BME280;5175;42.606;23.388;2023-11-25T03:38:09;91365.81;;;8.25;100.00
10261;BME280;5175;42.606;23.388;2023-11-25T03:40:36;91355.81;;;8.22;100.00
10261;BME280;5175;42.606;23.388;2023-11-25T03:43:03;91349.13;;;7.95;100.00
10261;BME280;5175;42.606;23.388;2023-11-25T03:45:29;91352.41;;;8.01;100.00
10261;BME280;5175;42.606;23.388;2023-11-25T03:47:58;91351.38;;;7.85;100.00
10261;BME280;5175;42.606;23.388;2023-11-25T03:50:24;91338.13;;;7.85;100.00
10261;BME280;5175;42.606;23.388;2023-11-25T03:52:52;91358.56;;;7.84;100.00
10261;BME280;5175;42.606;23.388;2023-11-25T03:55:19;91353.59;;;7.83;100.00
10261;BME280;5175;42.606;23.388;2023-11-25T03:57:46;91345.66;;;7.74;100.00
10261;BME280;5175;42.606;23.388;2023-11-25T04:00:14;91349.72;;;7.72;100.00
10261;BME280;5175;42.606;23.388;2023-11-25T04:02:42;91341.16;;;7.66;100.00
10261;BME280;5175;42.606;23.388;2023-11-25T04:05:10;91332.16;;;7.58;100.00
10261;BME280;5175;42.606;23.388;2023-11-25T04:07:38;91326.81;;;7.29;100.00
10261;BME280;5175;42.606;23.388;2023-11-25T04:10:05;91326.97;;;7.24;100.00
10261;BME280;5175;42.606;23.388;2023-11-25T04:12:39;91322.78;;;7.23;100.00
10261;BME280;5175;42.606;23.388;2023-11-25T04:15:07;91328.22;;;7.27;100.00
10261;BME280;5175;42.606;23.388;2023-11-25T04:17:35;91328.69;;;7.29;100.00
10261;BME280;5175;42.606;23.388;2023-11-25T04:20:02;91332.59;;;7.31;100.00
10261;BME280;5175;42.606;23.388;2023-11-25T04:22:32;91336.16;;;7.35;100.00
10261;BME280;5175;42.606;23.388;2023-11-25T04:24:59;91333.41;;;7.15;100.00
10261;BME280;5175;42.606;23.388;2023-11-25T04:27:25;91334.53;;;7.05;100.00
10261;BME280;5175;42.606;23.388;2023-11-25T04:29:54;91331.44;;;7.03;100.00
10261;BME280;5175;42.606;23.388;2023-11-25T04:32:21;91343.28;;;6.97;100.00
10261;BME280;5175;42.606;23.388;2023-11-25T04:34:48;91330.09;;;6.63;100.00
10261;BME280;5175;42.606;23.388;2023-11-25T04:37:15;91329.31;;;6.71;100.00
10261;BME280;5175;42.606;23.388;2023-11-25T04:39:43;91323.56;;;6.60;100.00
10261;BME280;5175;42.606;23.388;2023-11-25T04:42:09;91333.69;;;6.58;100.00
10261;BME280;5175;42.606;23.388;2023-11-25T04:44:36;91342.88;;;6.61;100.00
10261;BME280;5175;42.606;23.388;2023-11-25T04:47:03;91346.16;;;6.66;100.00
10261;BME280;5175;42.606;23.388;2023-11-25T04:49:30;91339.94;;;6.54;100.00
10261;BME280;5175;42.606;23.388;2023-11-25T04:51:57;91338.06;;;6.54;100.00
10261;BME280;5175;42.606;23.388;2023-11-25T04:54:24;91334.50;;;6.16;100.00
10261;BME280;5175;42.606;23.388;2023-11-25T04:56:52;91339.63;;;6.12;100.00
10261;BME280;5175;42.606;23.388;2023-11-25T04:59:19;91329.81;;;6.21;100.00
10261;BME280;5175;42.606;23.388;2023-11-25T05:01:46;91331.66;;;6.04;100.00
10261;BME280;5175;42.606;23.388;2023-11-25T05:04:13;91335.56;;;6.06;100.00
10261;BME280;5175;42.606;23.388;2023-11-25T05:06:39;91346.63;;;6.17;100.00
10261;BME280;5175;42.606;23.388;2023-11-25T05:09:06;91353.31;;;5.97;100.00
10261;BME280;5175;42.606;23.388;2023-11-25T05:11:33;91352.69;;;6.09;100.00
10261;BME280;5175;42.606;23.388;2023-11-25T05:14:01;91359.34;;;5.89;100.00
10261;BME280;5175;42.606;23.388;2023-11-25T05:16:28;91356.09;;;5.92;100.00
10261;BME280;5175;42.606;23.388;2023-11-25T05:18:55;91354.81;;;5.81;100.00
10261;BME280;5175;42.606;23.388;2023-11-25T05:21:21;91348.44;;;5.82;100.00
10261;BME280;5175;42.606;23.388;2023-11-25T05:23:48;91355.09;;;5.71;100.00
10261;BME280;5175;42.606;23.388;2023-11-25T05:26:15;91353.66;;;5.65;100.00
10261;BME280;5175;42.606;23.388;2023-11-25T05:28:42;91359.38;;;5.41;100.00
10261;BME280;5175;42.606;23.388;2023-11-25T05:31:11;91345.22;;;5.46;100.00
10261;BME280;5175;42.606;23.388;2023-11-25T05:33:38;91362.66;;;5.55;100.00
10261;BME280;5175;42.606;23.388;2023-11-25T05:36:05;91378.81;;;5.45;100.00
10261;BME280;5175;42.606;23.388;2023-11-25T05:38:32;91371.63;;;4.98;100.00
10261;BME280;5175;42.606;23.388;2023-11-25T05:40:59;91383.03;;;4.85;100.00
10261;BME280;5175;42.606;23.388;2023-11-25T05:43:28;91382.84;;;4.81;100.00
10261;BME280;5175;42.606;23.388;2023-11-25T05:45:54;91392.41;;;4.69;100.00
10261;BME280;5175;42.606;23.388;2023-11-25T05:48:24;91388.81;;;4.65;100.00
10261;BME280;5175;42.606;23.388;2023-11-25T05:50:52;91393.59;;;4.63;100.00
10261;BME280;5175;42.606;23.388;2023-11-25T05:53:19;91406.63;;;4.59;100.00
10261;BME280;5175;42.606;23.388;2023-11-25T05:55:46;91409.63;;;4.44;100.00
10261;BME280;5175;42.606;23.388;2023-11-25T05:58:12;91412.66;;;4.02;100.00
10261;BME280;5175;42.606;23.388;2023-11-25T06:00:39;91434.56;;;3.75;100.00
10261;BME280;5175;42.606;23.388;2023-11-25T06:03:07;91418.06;;;3.42;100.00
10261;BME280;5175;42.606;23.388;2023-11-25T06:05:35;91416.19;;;3.29;100.00
10261;BME280;5175;42.606;23.388;2023-11-25T06:08:02;91419.31;;;3.17;100.00
10261;BME280;5175;42.606;23.388;2023-11-25T06:10:29;91427.78;;;3.01;100.00
10261;BME280;5175;42.606;23.388;2023-11-25T06:12:56;91429.13;;;2.85;100.00
10261;BME280;5175;42.606;23.388;2023-11-25T06:15:22;91442.38;;;2.80;100.00
10261;BME280;5175;42.606;23.388;2023-11-25T06:17:49;91455.66;;;2.70;100.00
10261;BME280;5175;42.606;23.388;2023-11-25T06:20:16;91449.63;;;2.69;100.00
10261;BME280;5175;42.606;23.388;2023-11-25T06:22:44;91439.47;;;2.63;100.00
10261;BME280;5175;42.606;23.388;2023-11-25T06:25:11;91460.03;;;2.61;100.00
10261;BME280;5175;42.606;23.388;2023-11-25T06:27:39;91466.41;;;2.54;100.00
10261;BME280;5175;42.606;23.388;2023-11-25T06:30:06;91467.22;;;2.55;100.00
10261;BME280;5175;42.606;23.388;2023-11-25T06:32:33;91476.47;;;2.52;100.00
10261;BME280;5175;42.606;23.388;2023-11-25T06:35:00;91484.44;;;2.47;100.00
10261;BME280;5175;42.606;23.388;2023-11-25T06:37:27;91487.34;;;2.46;100.00
10261;BME280;5175;42.606;23.388;2023-11-25T06:39:55;91501.34;;;2.41;100.00
10261;BME280;5175;42.606;23.388;2023-11-25T06:42:21;91505.34;;;2.58;100.00
10261;BME280;5175;42.606;23.388;2023-11-25T06:44:48;91520.84;;;2.40;100.00
10261;BME280;5175;42.606;23.388;2023-11-25T06:47:16;91521.91;;;2.39;100.00
10261;BME280;5175;42.606;23.388;2023-11-25T06:49:44;91525.09;;;2.36;100.00
10261;BME280;5175;42.606;23.388;2023-11-25T06:52:11;91533.28;;;2.35;100.00
10261;BME280;5175;42.606;23.388;2023-11-25T06:54:39;91544.09;;;2.33;100.00
10261;BME280;5175;42.606;23.388;2023-11-25T06:57:07;91545.38;;;2.36;100.00
10261;BME280;5175;42.606;23.388;2023-11-25T06:59:34;91561.91;;;2.36;100.00
10261;BME280;5175;42.606;23.388;2023-11-25T07:02:01;91551.19;;;2.33;100.00
10261;BME280;5175;42.606;23.388;2023-11-25T07:04:29;91559.22;;;2.41;100.00
10261;BME280;5175;42.606;23.388;2023-11-25T07:06:56;91554.47;;;2.43;100.00
10261;BME280;5175;42.606;23.388;2023-11-25T07:09:22;91548.28;;;2.53;100.00
10261;BME280;5175;42.606;23.388;2023-11-25T07:11:49;91551.00;;;2.67;100.00
10261;BME280;5175;42.606;23.388;2023-11-25T07:14:17;91555.50;;;2.66;100.00
10261;BME280;5175;42.606;23.388;2023-11-25T07:16:44;91548.16;;;2.82;100.00
10261;BME280;5175;42.606;23.388;2023-11-25T07:19:11;91540.59;;;2.75;100.00
10261;BME280;5175;42.606;23.388;2023-11-25T07:21:38;91539.88;;;2.88;100.00
10261;BME280;5175;42.606;23.388;2023-11-25T07:24:05;91529.09;;;2.90;100.00
10261;BME280;5175;42.606;23.388;2023-11-25T07:26:33;91521.38;;;2.93;100.00
10261;BME280;5175;42.606;23.388;2023-11-25T07:29:05;91528.72;;;2.96;100.00
10261;BME280;5175;42.606;23.388;2023-11-25T07:31:36;91523.28;;;3.06;100.00
10261;BME280;5175;42.606;23.388;2023-11-25T07:34:03;91523.13;;;2.98;100.00
10261;BME280;5175;42.606;23.388;2023-11-25T07:36:30;91527.44;;;2.94;100.00
10261;BME280;5175;42.606;23.388;2023-11-25T07:38:57;91519.44;;;2.67;100.00
10261;BME280;5175;42.606;23.388;2023-11-25T07:41:24;91516.41;;;2.54;100.00
10261;BME280;5175;42.606;23.388;2023-11-25T07:43:51;91522.28;;;2.51;100.00
10261;BME280;5175;42.606;23.388;2023-11-25T07:46:18;91527.56;;;2.09;100.00
10261;BME280;5175;42.606;23.388;2023-11-25T07:48:46;91524.75;;;2.01;100.00
10261;BME280;5175;42.606;23.388;2023-11-25T07:51:13;91521.50;;;2.09;100.00
10261;BME280;5175;42.606;23.388;2023-11-25T07:53:39;91509.56;;;2.16;100.00
10261;BME280;5175;42.606;23.388;2023-11-25T07:56:06;91506.63;;;2.23;100.00
10261;BME280;5175;42.606;23.388;2023-11-25T07:58:33;91511.03;;;2.27;100.00
10261;BME280;5175;42.606;23.388;2023-11-25T08:01:00;91512.06;;;2.08;100.00
10261;BME280;5175;42.606;23.388;2023-11-25T08:03:27;91505.00;;;2.03;100.00
10261;BME280;5175;42.606;23.388;2023-11-25T08:05:55;91495.00;;;2.05;100.00
10261;BME280;5175;42.606;23.388;2023-11-25T08:08:22;91499.25;;;2.01;100.00
10261;BME280;5175;42.606;23.388;2023-11-25T08:10:49;91500.66;;;1.94;100.00
10261;BME280;5175;42.606;23.388;2023-11-25T08:13:17;91502.00;;;1.91;100.00
10261;BME280;5175;42.606;23.388;2023-11-25T08:15:45;91505.31;;;1.78;100.00
10261;BME280;5175;42.606;23.388;2023-11-25T08:18:12;91495.38;;;1.75;100.00
10261;BME280;5175;42.606;23.388;2023-11-25T08:20:40;91506.94;;;1.74;100.00
10261;BME280;5175;42.606;23.388;2023-11-25T08:23:08;91507.38;;;1.81;100.00
10261;BME280;5175;42.606;23.388;2023-11-25T08:25:36;91513.38;;;1.86;100.00
10261;BME280;5175;42.606;23.388;2023-11-25T08:28:02;91512.59;;;1.86;100.00
10261;BME280;5175;42.606;23.388;2023-11-25T08:30:29;91517.41;;;2.03;100.00
10261;BME280;5175;42.606;23.388;2023-11-25T08:32:56;91517.03;;;2.09;100.00
10261;BME280;5175;42.606;23.388;2023-11-25T08:35:25;91513.25;;;1.97;100.00
10261;BME280;5175;42.606;23.388;2023-11-25T08:37:51;91512.97;;;1.98;100.00
10261;BME280;5175;42.606;23.388;2023-11-25T08:40:20;91522.38;;;2.04;100.00
10261;BME280;5175;42.606;23.388;2023-11-25T08:42:47;91518.03;;;1.95;100.00
10261;BME280;5175;42.606;23.388;2023-11-25T08:45:15;91513.56;;;1.90;100.00
10261;BME280;5175;42.606;23.388;2023-11-25T08:47:42;91505.00;;;2.03;100.00
10261;BME280;5175;42.606;23.388;2023-11-25T08:50:09;91505.53;;;2.05;100.00
10261;BME280;5175;42.606;23.388;2023-11-25T08:52:39;91511.22;;;2.12;100.00
10261;BME280;5175;42.606;23.388;2023-11-25T08:55:08;91510.06;;;2.00;100.00
10261;BME280;5175;42.606;23.388;2023-11-25T08:57:37;91513.97;;;2.02;100.00
10261;BME280;5175;42.606;23.388;2023-11-25T09:00:06;91510.78;;;2.05;100.00
10261;BME280;5175;42.606;23.388;2023-11-25T09:02:41;91505.16;;;2.12;100.00
10261;BME280;5175;42.606;23.388;2023-11-25T09:05:09;91514.84;;;2.16;100.00
10261;BME280;5175;42.606;23.388;2023-11-25T09:07:40;91497.78;;;1.95;100.00
10261;BME280;5175;42.606;23.388;2023-11-25T09:10:07;91488.53;;;1.98;100.00
10261;BME280;5175;42.606;23.388;2023-11-25T09:12:37;91506.09;;;2.02;100.00
10261;BME280;5175;42.606;23.388;2023-11-25T09:15:05;91516.75;;;2.11;100.00
10261;BME280;5175;42.606;23.388;2023-11-25T09:17:33;91512.75;;;1.95;100.00
10261;BME280;5175;42.606;23.388;2023-11-25T09:20:05;91502.75;;;1.97;100.00
10261;BME280;5175;42.606;23.388;2023-11-25T09:22:35;91495.53;;;1.83;100.00
10261;BME280;5175;42.606;23.388;2023-11-25T09:25:02;91490.09;;;1.75;100.00
10261;BME280;5175;42.606;23.388;2023-11-25T09:27:29;91497.44;;;1.78;100.00
10261;BME280;5175;42.606;23.388;2023-11-25T09:29:57;91488.63;;;1.69;100.00
10261;BME280;5175;42.606;23.388;2023-11-25T09:32:24;91491.38;;;1.77;100.00
10261;BME280;5175;42.606;23.388;2023-11-25T09:34:54;91490.03;;;1.80;100.00
10261;BME280;5175;42.606;23.388;2023-11-25T09:37:21;91494.75;;;1.83;100.00
10261;BME280;5175;42.606;23.388;2023-11-25T09:39:47;91485.91;;;1.98;100.00
10261;BME280;5175;42.606;23.388;2023-11-25T09:42:14;91483.16;;;2.08;100.00
10261;BME280;5175;42.606;23.388;2023-11-25T09:44:42;91476.88;;;2.04;100.00
10261;BME280;5175;42.606;23.388;2023-11-25T09:47:10;91478.59;;;2.13;100.00
10261;BME280;5175;42.606;23.388;2023-11-25T09:49:37;91476.38;;;2.02;100.00
10261;BME280;5175;42.606;23.388;2023-11-25T09:52:05;91473.31;;;1.95;100.00
10261;BME280;5175;42.606;23.388;2023-11-25T09:54:35;91471.19;;;1.97;100.00
10261;BME280;5175;42.606;23.388;2023-11-25T09:57:03;91473.03;;;1.96;100.00
10261;BME280;5175;42.606;23.388;2023-11-25T09:59:31;91465.50;;;2.08;100.00
10261;BME280;5175;42.606;23.388;2023-11-25T10:01:58;91444.59;;;1.98;100.00
10261;BME280;5175;42.606;23.388;2023-11-25T10:04:28;91457.06;;;2.30;100.00
10261;BME280;5175;42.606;23.388;2023-11-25T10:06:58;91452.72;;;2.39;100.00
10261;BME280;5175;42.606;23.388;2023-11-25T10:09:25;91450.00;;;2.44;100.00
10261;BME280;5175;42.606;23.388;2023-11-25T10:11:53;91438.06;;;2.51;100.00
10261;BME280;5175;42.606;23.388;2023-11-25T10:14:25;91436.19;;;2.71;100.00
10261;BME280;5175;42.606;23.388;2023-11-25T10:16:55;91432.69;;;2.75;100.00
10261;BME280;5175;42.606;23.388;2023-11-25T10:19:23;91427.63;;;2.79;100.00
10261;BME280;5175;42.606;23.388;2023-11-25T10:21:53;91426.34;;;2.76;100.00
10261;BME280;5175;42.606;23.388;2023-11-25T10:24:23;91427.84;;;2.82;100.00
10261;BME280;5175;42.606;23.388;2023-11-25T10:26:49;91419.56;;;2.57;100.00
10261;BME280;5175;42.606;23.388;2023-11-25T10:29:18;91412.66;;;2.61;100.00
10261;BME280;5175;42.606;23.388;2023-11-25T10:31:53;91434.19;;;2.63;100.00
10261;BME280;5175;42.606;23.388;2023-11-25T10:34:22;91435.28;;;2.62;100.00
10261;BME280;5175;42.606;23.388;2023-11-25T10:36:50;91432.91;;;2.46;100.00
10261;BME280;5175;42.606;23.388;2023-11-25T10:39:18;91431.09;;;2.61;100.00
10261;BME280;5175;42.606;23.388;2023-11-25T10:41:49;91415.50;;;2.64;100.00
10261;BME280;5175;42.606;23.388;2023-11-25T10:44:16;91425.50;;;2.48;100.00
10261;BME280;5175;42.606;23.388;2023-11-25T10:46:43;91414.63;;;2.69;100.00
10261;BME280;5175;42.606;23.388;2023-11-25T10:49:10;91395.63;;;2.72;100.00
10261;BME280;5175;42.606;23.388;2023-11-25T10:51:37;91395.63;;;2.72;100.00
10261;BME280;5175;42.606;23.388;2023-11-25T10:54:06;91389.28;;;2.59;100.00
10261;BME280;5175;42.606;23.388;2023-11-25T10:56:36;91374.50;;;2.44;100.00
10261;BME280;5175;42.606;23.388;2023-11-25T10:59:05;91368.09;;;2.50;100.00
10261;BME280;5175;42.606;23.388;2023-11-25T11:01:35;91361.72;;;2.38;100.00
10261;BME280;5175;42.606;23.388;2023-11-25T11:04:09;91366.19;;;2.37;100.00
10261;BME280;5175;42.606;23.388;2023-11-25T11:06:44;91361.47;;;2.53;100.00
10261;BME280;5175;42.606;23.388;2023-11-25T11:09:16;91358.06;;;2.52;100.00
10261;BME280;5175;42.606;23.388;2023-11-25T11:11:50;91348.41;;;2.48;100.00
10261;BME280;5175;42.606;23.388;2023-11-25T11:14:20;91328.13;;;2.48;100.00
10261;BME280;5175;42.606;23.388;2023-11-25T11:16:49;91332.13;;;2.46;100.00
10261;BME280;5175;42.606;23.388;2023-11-25T11:19:26;91326.47;;;2.52;100.00
10261;BME280;5175;42.606;23.388;2023-11-25T11:21:59;91316.03;;;2.47;100.00
10261;BME280;5175;42.606;23.388;2023-11-25T11:24:37;91313.91;;;2.49;100.00
10261;BME280;5175;42.606;23.388;2023-11-25T11:27:11;91322.38;;;2.46;100.00
10261;BME280;5175;42.606;23.388;2023-11-25T11:29:44;91302.53;;;2.54;100.00
10261;BME280;5175;42.606;23.388;2023-11-25T11:32:13;91293.09;;;2.67;100.00
10261;BME280;5175;42.606;23.388;2023-11-25T11:34:44;91283.81;;;2.56;100.00
10261;BME280;5175;42.606;23.388;2023-11-25T11:37:12;91282.22;;;2.54;100.00
10261;BME280;5175;42.606;23.388;2023-11-25T11:39:40;91281.06;;;2.61;100.00
10261;BME280;5175;42.606;23.388;2023-11-25T11:42:29;91301.50;;;2.36;100.00
10261;BME280;5175;42.606;23.388;2023-11-25T11:44:59;91318.53;;;2.39;100.00
10261;BME280;5175;42.606;23.388;2023-11-25T11:47:40;91319.81;;;2.28;100.00
10261;BME280;5175;42.606;23.388;2023-11-25T11:50:10;91287.00;;;2.07;100.00
10261;BME280;5175;42.606;23.388;2023-11-25T11:52:44;91301.03;;;2.16;100.00
10261;BME280;5175;42.606;23.388;2023-11-25T11:55:36;91305.53;;;2.15;100.00
10261;BME280;5175;42.606;23.388;2023-11-25T11:58:09;91296.00;;;2.19;100.00
10261;BME280;5175;42.606;23.388;2023-11-25T12:00:41;91307.53;;;2.23;100.00
10261;BME280;5175;42.606;23.388;2023-11-25T12:03:09;91295.47;;;2.36;100.00
10261;BME280;5175;42.606;23.388;2023-11-25T12:05:36;91298.00;;;2.41;100.00
10261;BME280;5175;42.606;23.388;2023-11-25T12:08:03;91290.31;;;2.44;100.00
10261;BME280;5175;42.606;23.388;2023-11-25T12:10:31;91295.78;;;2.48;100.00
10261;BME280;5175;42.606;23.388;2023-11-25T12:12:58;91273.91;;;2.34;100.00
10261;BME280;5175;42.606;23.388;2023-11-25T12:15:27;91285.91;;;2.40;100.00
10261;BME280;5175;42.606;23.388;2023-11-25T12:17:56;91284.66;;;2.37;100.00
10261;BME280;5175;42.606;23.388;2023-11-25T12:20:23;91282.09;;;2.32;100.00
10261;BME280;5175;42.606;23.388;2023-11-25T12:22:51;91280.53;;;2.31;100.00
10261;BME280;5175;42.606;23.388;2023-11-25T12:25:18;91266.63;;;2.44;100.00
10261;BME280;5175;42.606;23.388;2023-11-25T12:27:50;91272.41;;;2.46;100.00
10261;BME280;5175;42.606;23.388;2023-11-25T12:30:18;91268.09;;;2.50;100.00
10261;BME280;5175;42.606;23.388;2023-11-25T12:32:46;91273.06;;;2.38;100.00
10261;BME280;5175;42.606;23.388;2023-11-25T12:35:13;91257.75;;;2.40;100.00
10261;BME280;5175;42.606;23.388;2023-11-25T12:37:40;91259.25;;;2.46;100.00
10261;BME280;5175;42.606;23.388;2023-11-25T12:40:18;91246.84;;;2.33;100.00
10261;BME280;5175;42.606;23.388;2023-11-25T12:42:47;91234.78;;;2.46;100.00
10261;BME280;5175;42.606;23.388;2023-11-25T12:45:30;91230.47;;;2.36;100.00
10261;BME280;5175;42.606;23.388;2023-11-25T12:47:59;91223.19;;;2.33;100.00
10261;BME280;5175;42.606;23.388;2023-11-25T12:50:28;91204.44;;;2.21;100.00
10261;BME280;5175;42.606;23.388;2023-11-25T12:53:06;91223.94;;;2.20;100.00
10261;BME280;5175;42.606;23.388;2023-11-25T12:55:37;91216.94;;;2.29;100.00
10261;BME280;5175;42.606;23.388;2023-11-25T12:58:05;91208.16;;;2.34;100.00
10261;BME280;5175;42.606;23.388;2023-11-25T13:00:33;91200.56;;;2.32;100.00
10261;BME280;5175;42.606;23.388;2023-11-25T13:03:02;91205.44;;;2.39;100.00